sensor_id;sensor_type;location;lat;lon;timestamp;pressure;altitude;pressure_sealevel;temperature;humidity
35655;BME280;21773;50.010;19.972;2023-05-25T00:00:16;99234.84;;;18.92;62.63
35655;BME280;21773;50.010;19.972;2023-05-25T00:03:23;99227.47;;;18.92;62.54
35655;BME280;21773;50.010;19.972;2023-05-25T00:06:29;99226.38;;;18.93;62.84
35655;BME280;21773;50.010;19.972;2023-05-25T00:09:32;99228.28;;;18.93;62.59
35655;BME280;21773;50.010;19.972;2023-05-25T00:12:35;99226.09;;;18.90;62.49
35655;BME280;21773;50.010;19.972;2023-05-25T00:15:39;99232.94;;;18.92;62.43
35655;BME280;21773;50.010;19.972;2023-05-25T00:18:44;99227.44;;;18.87;62.53
35655;BME280;21773;50.010;19.972;2023-05-25T00:21:49;99236.22;;;18.89;62.60
35655;BME280;21773;50.010;19.972;2023-05-25T00:24:53;99241.66;;;18.84;62.96
35655;BME280;21773;50.010;19.972;2023-05-25T00:27:56;99238.91;;;18.79;63.07
35655;BME280;21773;50.010;19.972;2023-05-25T00:31:00;99237.28;;;18.83;63.03
35655;BME280;21773;50.010;19.972;2023-05-25T00:34:05;99238.91;;;18.79;63.23
35655;BME280;21773;50.010;19.972;2023-05-25T00:37:08;99235.06;;;18.80;63.45
35655;BME280;21773;50.010;19.972;2023-05-25T00:40:14;99235.34;;;18.79;63.77
35655;BME280;21773;50.010;19.972;2023-05-25T00:43:17;99238.91;;;18.79;63.33
35655;BME280;21773;50.010;19.972;2023-05-25T00:46:22;99245.19;;;18.80;63.26
35655;BME280;21773;50.010;19.972;2023-05-25T00:49:27;99246.84;;;18.81;63.23
35655;BME280;21773;50.010;19.972;2023-05-25T00:52:33;99245.69;;;18.77;63.22
35655;BME280;21773;50.010;19.972;2023-05-25T00:55:40;99243.78;;;18.77;62.51
35655;BME280;21773;50.010;19.972;2023-05-25T00:58:49;99232.56;;;18.69;63.40
35655;BME280;21773;50.010;19.972;2023-05-25T01:01:54;99247.63;;;18.76;63.49
35655;BME280;21773;50.010;19.972;2023-05-25T01:05:01;99245.66;;;18.72;63.20
35655;BME280;21773;50.010;19.972;2023-05-25T01:08:10;99244.34;;;18.74;63.51
35655;BME280;21773;50.010;19.972;2023-05-25T01:11:19;99236.41;;;18.78;63.92
35655;BME280;21773;50.010;19.972;2023-05-25T01:14:24;99241.34;;;18.76;63.65
35655;BME280;21773;50.010;19.972;2023-05-25T01:17:30;99246.50;;;18.72;63.48
35655;BME280;21773;50.010;19.972;2023-05-25T01:20:34;99243.75;;;18.72;63.61
35655;BME280;21773;50.010;19.972;2023-05-25T01:23:42;99242.16;;;18.71;63.69
35655;BME280;21773;50.010;19.972;2023-05-25T01:26:54;99244.59;;;18.73;63.69
35655;BME280;21773;50.010;19.972;2023-05-25T01:29:58;99244.06;;;18.71;63.94
35655;BME280;21773;50.010;19.972;2023-05-25T01:33:05;99249.50;;;18.66;63.66
35655;BME280;21773;50.010;19.972;2023-05-25T01:36:09;99244.56;;;18.68;64.01
35655;BME280;21773;50.010;19.972;2023-05-25T01:39:14;99248.94;;;18.69;64.11
35655;BME280;21773;50.010;19.972;2023-05-25T01:42:18;99245.38;;;18.68;63.99
35655;BME280;21773;50.010;19.972;2023-05-25T01:45:22;99249.16;;;18.62;64.72
35655;BME280;21773;50.010;19.972;2023-05-25T01:48:31;99247.81;;;18.59;64.55
35655;BME280;21773;50.010;19.972;2023-05-25T01:51:39;99250.50;;;18.54;65.09
35655;BME280;21773;50.010;19.972;2023-05-25T01:54:52;99245.88;;;18.55;65.17
35655;BME280;21773;50.010;19.972;2023-05-25T01:57:58;99245.63;;;18.56;64.34
35655;BME280;21773;50.010;19.972;2023-05-25T02:01:01;99234.06;;;18.49;64.42
35655;BME280;21773;50.010;19.972;2023-05-25T02:04:05;99246.38;;;18.52;64.38
35655;BME280;21773;50.010;19.972;2023-05-25T02:07:09;99243.09;;;18.50;64.61
35655;BME280;21773;50.010;19.972;2023-05-25T02:10:14;99240.09;;;18.51;64.79
35655;BME280;21773;50.010;19.972;2023-05-25T02:13:18;99248.00;;;18.53;65.00
35655;BME280;21773;50.010;19.972;2023-05-25T02:16:21;99242.06;;;18.56;65.15
35655;BME280;21773;50.010;19.972;2023-05-25T02:19:25;99241.50;;;18.54;64.60
35655;BME280;21773;50.010;19.972;2023-05-25T02:22:30;99240.09;;;18.51;64.36
35655;BME280;21773;50.010;19.972;2023-05-25T02:25:35;99240.09;;;18.51;64.79
35655;BME280;21773;50.010;19.972;2023-05-25T02:28:38;99232.41;;;18.48;64.48
35655;BME280;21773;50.010;19.972;2023-05-25T02:31:42;99233.50;;;18.47;64.17
35655;BME280;21773;50.010;19.972;2023-05-25T02:34:45;99229.41;;;18.45;64.88
35655;BME280;21773;50.010;19.972;2023-05-25T02:37:49;99231.03;;;18.41;64.96
35655;BME280;21773;50.010;19.972;2023-05-25T02:40:54;99221.97;;;18.35;64.86
35655;BME280;21773;50.010;19.972;2023-05-25T02:43:58;99228.00;;;18.37;65.15
35655;BME280;21773;50.010;19.972;2023-05-25T02:47:01;99225.81;;;18.39;65.10
35655;BME280;21773;50.010;19.972;2023-05-25T02:50:05;99227.13;;;18.27;65.30
35655;BME280;21773;50.010;19.972;2023-05-25T02:53:14;99221.69;;;18.32;65.62
35655;BME280;21773;50.010;19.972;2023-05-25T02:56:19;99217.03;;;18.27;65.93
35655;BME280;21773;50.010;19.972;2023-05-25T02:59:24;99226.00;;;18.23;65.94
35655;BME280;21773;50.010;19.972;2023-05-25T03:02:27;99223.28;;;18.23;66.10
35655;BME280;21773;50.010;19.972;2023-05-25T03:05:31;99221.06;;;18.19;66.11
35655;BME280;21773;50.010;19.972;2023-05-25T03:08:37;99221.63;;;18.22;66.18
35655;BME280;21773;50.010;19.972;2023-05-25T03:11:41;99224.06;;;18.23;66.15
35655;BME280;21773;50.010;19.972;2023-05-25T03:14:48;99219.22;;;18.30;66.08
35655;BME280;21773;50.010;19.972;2023-05-25T03:17:54;99221.38;;;18.28;66.25
35655;BME280;21773;50.010;19.972;2023-05-25T03:21:05;99222.19;;;18.29;66.16
35655;BME280;21773;50.010;19.972;2023-05-25T03:24:08;99205.75;;;18.18;66.67
35655;BME280;21773;50.010;19.972;2023-05-25T03:27:14;99228.78;;;18.33;66.49
35655;BME280;21773;50.010;19.972;2023-05-25T03:30:17;99241.06;;;18.30;66.88
35655;BME280;21773;50.010;19.972;2023-05-25T03:33:20;99249.00;;;18.32;66.70
35655;BME280;21773;50.010;19.972;2023-05-25T03:36:24;99250.88;;;18.31;66.26
35655;BME280;21773;50.010;19.972;2023-05-25T03:39:28;99251.16;;;18.30;66.56
35655;BME280;21773;50.010;19.972;2023-05-25T03:42:33;99248.94;;;18.27;66.41
35655;BME280;21773;50.010;19.972;2023-05-25T03:45:37;99244.53;;;18.21;66.58
35655;BME280;21773;50.010;19.972;2023-05-25T03:48:40;99255.19;;;18.22;66.43
35655;BME280;21773;50.010;19.972;2023-05-25T03:51:44;99249.22;;;18.25;66.48
35655;BME280;21773;50.010;19.972;2023-05-25T03:54:48;99252.19;;;18.24;66.57
35655;BME280;21773;50.010;19.972;2023-05-25T03:57:52;99256.03;;;18.28;66.20
35655;BME280;21773;50.010;19.972;2023-05-25T04:00:55;99262.91;;;18.35;66.10
35655;BME280;21773;50.010;19.972;2023-05-25T04:03:59;99266.22;;;18.37;65.96
35655;BME280;21773;50.010;19.972;2023-05-25T04:07:02;99268.38;;;18.35;65.80
35655;BME280;21773;50.010;19.972;2023-05-25T04:10:06;99267.34;;;18.41;65.49
35655;BME280;21773;50.010;19.972;2023-05-25T04:13:11;99271.97;;;18.41;65.23
35655;BME280;21773;50.010;19.972;2023-05-25T04:16:15;99268.41;;;18.40;65.06
35655;BME280;21773;50.010;19.972;2023-05-25T04:19:19;99267.25;;;18.31;65.39
35655;BME280;21773;50.010;19.972;2023-05-25T04:22:22;99270.00;;;18.31;65.45
35655;BME280;21773;50.010;19.972;2023-05-25T04:25:25;99277.94;;;18.38;65.96
35655;BME280;21773;50.010;19.972;2023-05-25T04:28:33;99270.84;;;18.37;65.44
35655;BME280;21773;50.010;19.972;2023-05-25T04:32:15;99277.16;;;18.37;65.65
35655;BME280;21773;50.010;19.972;2023-05-25T04:35:29;99285.84;;;18.34;65.43
35655;BME280;21773;50.010;19.972;2023-05-25T04:38:33;99291.03;;;18.36;65.26
35655;BME280;21773;50.010;19.972;2023-05-25T04:41:37;99288.06;;;18.42;65.28
35655;BME280;21773;50.010;19.972;2023-05-25T04:44:45;99291.66;;;18.48;65.50
35655;BME280;21773;50.010;19.972;2023-05-25T04:47:49;99295.22;;;18.48;65.17
35655;BME280;21773;50.010;19.972;2023-05-25T04:50:52;99297.16;;;18.53;64.10
35655;BME280;21773;50.010;19.972;2023-05-25T04:53:57;99287.84;;;18.49;63.82
35655;BME280;21773;50.010;19.972;2023-05-25T04:57:01;99299.44;;;18.61;63.58
35655;BME280;21773;50.010;19.972;2023-05-25T05:00:08;99299.44;;;18.61;63.79
35655;BME280;21773;50.010;19.972;2023-05-25T05:03:13;99296.97;;;18.59;63.93
35655;BME280;21773;50.010;19.972;2023-05-25T05:06:17;99304.50;;;18.52;63.18
35655;BME280;21773;50.010;19.972;2023-05-25T05:09:20;99307.84;;;18.54;63.67
35655;BME280;21773;50.010;19.972;2023-05-25T05:12:25;99313.06;;;18.56;63.76
35655;BME280;21773;50.010;19.972;2023-05-25T05:15:33;99311.41;;;18.55;63.96
35655;BME280;21773;50.010;19.972;2023-05-25T05:18:36;99326.13;;;18.54;63.37
35655;BME280;21773;50.010;19.972;2023-05-25T05:21:40;99333.50;;;18.53;63.16
35655;BME280;21773;50.010;19.972;2023-05-25T05:24:43;99334.50;;;18.47;62.54
35655;BME280;21773;50.010;19.972;2023-05-25T05:27:53;99335.06;;;18.44;63.12
35655;BME280;21773;50.010;19.972;2023-05-25T05:31:01;99333.97;;;18.45;63.49
35655;BME280;21773;50.010;19.972;2023-05-25T05:34:05;99336.69;;;18.45;63.57
35655;BME280;21773;50.010;19.972;2023-05-25T05:37:09;99332.91;;;18.46;62.97
35655;BME280;21773;50.010;19.972;2023-05-25T05:40:12;99341.59;;;18.43;63.08
35655;BME280;21773;50.010;19.972;2023-05-25T05:43:17;99340.19;;;18.36;63.20
35655;BME280;21773;50.010;19.972;2023-05-25T05:46:21;99345.03;;;18.29;63.36
35655;BME280;21773;50.010;19.972;2023-05-25T05:49:25;99346.97;;;18.33;62.66
35655;BME280;21773;50.010;19.972;2023-05-25T05:52:28;99337.44;;;18.36;62.18
35655;BME280;21773;50.010;19.972;2023-05-25T05:55:32;99333.31;;;18.33;62.62
35655;BME280;21773;50.010;19.972;2023-05-25T05:58:36;99347.34;;;18.42;62.60
35655;BME280;21773;50.010;19.972;2023-05-25T06:01:40;99352.00;;;18.46;61.93
35655;BME280;21773;50.010;19.972;2023-05-25T06:04:45;99359.84;;;18.38;61.79
35655;BME280;21773;50.010;19.972;2023-05-25T06:07:49;99348.13;;;18.37;61.61
35655;BME280;21773;50.010;19.972;2023-05-25T06:10:54;99345.09;;;18.39;61.58
35655;BME280;21773;50.010;19.972;2023-05-25T06:13:58;99357.94;;;18.38;61.69
35655;BME280;21773;50.010;19.972;2023-05-25T06:17:03;99365.94;;;18.50;61.51
35655;BME280;21773;50.010;19.972;2023-05-25T06:20:08;99369.66;;;18.66;60.80
35655;BME280;21773;50.010;19.972;2023-05-25T06:23:12;99359.66;;;18.81;60.33
35655;BME280;21773;50.010;19.972;2023-05-25T06:26:15;99364.09;;;18.97;60.27
35655;BME280;21773;50.010;19.972;2023-05-25T06:29:18;99373.72;;;19.05;59.87
35655;BME280;21773;50.010;19.972;2023-05-25T06:32:23;99365.91;;;19.24;59.14
35655;BME280;21773;50.010;19.972;2023-05-25T06:35:27;99368.94;;;19.32;58.73
35655;BME280;21773;50.010;19.972;2023-05-25T06:38:31;99380.81;;;19.58;58.46
35655;BME280;21773;50.010;19.972;2023-05-25T06:41:36;99382.47;;;19.54;58.09
35655;BME280;21773;50.010;19.972;2023-05-25T06:44:40;99382.75;;;19.63;57.79
35655;BME280;21773;50.010;19.972;2023-05-25T06:47:45;99388.53;;;19.71;57.52
35655;BME280;21773;50.010;19.972;2023-05-25T06:50:48;99389.09;;;19.78;57.46
35655;BME280;21773;50.010;19.972;2023-05-25T06:53:52;99382.84;;;19.88;57.00
35655;BME280;21773;50.010;19.972;2023-05-25T06:56:56;99383.91;;;19.87;56.39
35655;BME280;21773;50.010;19.972;2023-05-25T06:59:59;99378.19;;;19.88;56.38
35655;BME280;21773;50.010;19.972;2023-05-25T07:03:06;99385.59;;;19.98;57.03
35655;BME280;21773;50.010;19.972;2023-05-25T07:06:09;99384.50;;;20.04;55.90
35655;BME280;21773;50.010;19.972;2023-05-25T07:09:13;99393.22;;;19.86;56.25
35655;BME280;21773;50.010;19.972;2023-05-25T07:12:18;99399.69;;;19.55;57.14
35655;BME280;21773;50.010;19.972;2023-05-25T07:15:22;99402.34;;;19.39;57.45
35655;BME280;21773;50.010;19.972;2023-05-25T07:18:27;99404.69;;;19.26;58.09
35655;BME280;21773;50.010;19.972;2023-05-25T07:21:31;99409.53;;;19.09;58.59
35655;BME280;21773;50.010;19.972;2023-05-25T07:24:35;99406.44;;;18.90;59.53
35655;BME280;21773;50.010;19.972;2023-05-25T07:27:38;99402.31;;;18.92;60.10
35655;BME280;21773;50.010;19.972;2023-05-25T07:30:43;99411.06;;;18.89;60.42
35655;BME280;21773;50.010;19.972;2023-05-25T07:33:48;99402.63;;;18.91;60.65
35655;BME280;21773;50.010;19.972;2023-05-25T07:36:52;99405.91;;;18.98;60.26
35655;BME280;21773;50.010;19.972;2023-05-25T07:39:55;99402.91;;;18.94;60.08
35655;BME280;21773;50.010;19.972;2023-05-25T07:42:58;99404.44;;;18.80;60.48
35655;BME280;21773;50.010;19.972;2023-05-25T07:46:02;99403.28;;;18.71;60.99
35655;BME280;21773;50.010;19.972;2023-05-25T07:49:06;99410.09;;;18.69;61.52
35655;BME280;21773;50.010;19.972;2023-05-25T07:52:14;99407.22;;;18.85;61.68
35655;BME280;21773;50.010;19.972;2023-05-25T07:55:18;99401.22;;;18.88;61.16
35655;BME280;21773;50.010;19.972;2023-05-25T07:58:22;99405.03;;;18.87;60.48
35655;BME280;21773;50.010;19.972;2023-05-25T08:01:25;99415.09;;;18.82;61.38
35655;BME280;21773;50.010;19.972;2023-05-25T08:04:30;99406.84;;;18.77;61.66
35655;BME280;21773;50.010;19.972;2023-05-25T08:07:35;99409.56;;;18.72;61.48
35655;BME280;21773;50.010;19.972;2023-05-25T08:10:41;99404.72;;;18.84;61.93
35655;BME280;21773;50.010;19.972;2023-05-25T08:13:44;99408.38;;;18.94;60.95
35655;BME280;21773;50.010;19.972;2023-05-25T08:16:48;99409.72;;;18.97;60.87
35655;BME280;21773;50.010;19.972;2023-05-25T08:19:53;99409.22;;;19.00;60.56
35655;BME280;21773;50.010;19.972;2023-05-25T08:22:56;99412.28;;;19.09;60.92
35655;BME280;21773;50.010;19.972;2023-05-25T08:26:00;99409.16;;;18.90;60.34
35655;BME280;21773;50.010;19.972;2023-05-25T08:29:12;99414.09;;;18.93;60.78
35655;BME280;21773;50.010;19.972;2023-05-25T08:32:15;99415.72;;;18.94;61.20
35655;BME280;21773;50.010;19.972;2023-05-25T08:35:20;99420.97;;;19.00;60.81
35655;BME280;21773;50.010;19.972;2023-05-25T08:38:23;99417.69;;;18.98;60.26
35655;BME280;21773;50.010;19.972;2023-05-25T08:41:28;99416.88;;;19.03;60.65
35655;BME280;21773;50.010;19.972;2023-05-25T08:44:31;99415.88;;;19.14;60.17
35655;BME280;21773;50.010;19.972;2023-05-25T08:47:40;99404.16;;;19.24;59.58
35655;BME280;21773;50.010;19.972;2023-05-25T08:50:45;99417.31;;;19.32;58.81
35655;BME280;21773;50.010;19.972;2023-05-25T08:53:50;99408.31;;;19.36;58.85
35655;BME280;21773;50.010;19.972;2023-05-25T08:56:54;99399.94;;;19.48;58.61
35655;BME280;21773;50.010;19.972;2023-05-25T09:00:04;99401.06;;;19.62;57.34
35655;BME280;21773;50.010;19.972;2023-05-25T09:03:14;99405.19;;;19.70;57.33
35655;BME280;21773;50.010;19.972;2023-05-25T09:06:21;99409.88;;;19.79;57.14
35655;BME280;21773;50.010;19.972;2023-05-25T09:09:26;99411.47;;;19.65;56.93
35655;BME280;21773;50.010;19.972;2023-05-25T09:12:30;99407.09;;;19.59;56.80
35655;BME280;21773;50.010;19.972;2023-05-25T09:15:33;99411.50;;;19.70;57.16
35655;BME280;21773;50.010;19.972;2023-05-25T09:18:37;99412.59;;;19.74;57.48
35655;BME280;21773;50.010;19.972;2023-05-25T09:21:42;99417.56;;;19.82;57.05
35655;BME280;21773;50.010;19.972;2023-05-25T09:24:46;99420.56;;;19.81;56.75
35655;BME280;21773;50.010;19.972;2023-05-25T09:27:49;99423.03;;;19.82;56.74
35655;BME280;21773;50.010;19.972;2023-05-25T09:30:54;99430.97;;;19.79;57.05
35655;BME280;21773;50.010;19.972;2023-05-25T09:33:58;99425.78;;;19.82;57.06
35655;BME280;21773;50.010;19.972;2023-05-25T09:37:10;99431.50;;;19.81;56.28
35655;BME280;21773;50.010;19.972;2023-05-25T09:40:13;99424.72;;;19.88;57.11
35655;BME280;21773;50.010;19.972;2023-05-25T09:43:18;99428.84;;;20.01;56.42
35655;BME280;21773;50.010;19.972;2023-05-25T09:46:41;99435.94;;;19.97;56.44
35655;BME280;21773;50.010;19.972;2023-05-25T09:49:46;99421.94;;;19.78;56.55
35655;BME280;21773;50.010;19.972;2023-05-25T09:52:56;99431.22;;;19.77;57.09
35655;BME280;21773;50.010;19.972;2023-05-25T09:56:00;99423.81;;;19.73;57.01
35655;BME280;21773;50.010;19.972;2023-05-25T09:59:05;99424.13;;;19.81;57.15
35655;BME280;21773;50.010;19.972;2023-05-25T10:02:08;99421.38;;;19.81;56.78
35655;BME280;21773;50.010;19.972;2023-05-25T10:05:11;99423.34;;;19.91;56.60
35655;BME280;21773;50.010;19.972;2023-05-25T10:08:19;99420.34;;;19.93;56.56
35655;BME280;21773;50.010;19.972;2023-05-25T10:11:23;99415.41;;;20.00;56.59
35655;BME280;21773;50.010;19.972;2023-05-25T10:14:29;99412.41;;;20.01;55.93
35655;BME280;21773;50.010;19.972;2023-05-25T10:17:33;99412.16;;;20.03;56.38
35655;BME280;21773;50.010;19.972;2023-05-25T10:20:38;99415.66;;;19.88;56.04
35655;BME280;21773;50.010;19.972;2023-05-25T10:23:46;99421.44;;;20.02;56.77
35655;BME280;21773;50.010;19.972;2023-05-25T10:26:53;99419.28;;;20.14;56.55
35655;BME280;21773;50.010;19.972;2023-05-25T10:29:58;99410.53;;;20.17;55.61
35655;BME280;21773;50.010;19.972;2023-05-25T10:33:04;99402.31;;;20.22;55.95
35655;BME280;21773;50.010;19.972;2023-05-25T10:36:08;99409.16;;;20.24;56.17
35655;BME280;21773;50.010;19.972;2023-05-25T10:39:17;99403.41;;;20.26;56.06
35655;BME280;21773;50.010;19.972;2023-05-25T10:42:22;99417.16;;;20.36;55.58
35655;BME280;21773;50.010;19.972;2023-05-25T10:45:25;99418.25;;;20.35;55.44
35655;BME280;21773;50.010;19.972;2023-05-25T10:48:35;99407.03;;;20.31;55.07
35655;BME280;21773;50.010;19.972;2023-05-25T10:51:40;99406.19;;;20.36;55.39
35655;BME280;21773;50.010;19.972;2023-05-25T10:54:47;99408.69;;;20.33;55.99
35655;BME280;21773;50.010;19.972;2023-05-25T10:58:06;99403.19;;;20.43;55.63
35655;BME280;21773;50.010;19.972;2023-05-25T11:01:11;99407.56;;;20.33;55.06
35655;BME280;21773;50.010;19.972;2023-05-25T11:04:15;99411.91;;;20.24;56.18
35655;BME280;21773;50.010;19.972;2023-05-25T11:07:20;99413.81;;;20.24;56.55
35655;BME280;21773;50.010;19.972;2023-05-25T11:10:53;99413.03;;;20.33;56.38
35655;BME280;21773;50.010;19.972;2023-05-25T11:14:00;99398.00;;;20.36;56.65
35655;BME280;21773;50.010;19.972;2023-05-25T11:17:05;99414.44;;;20.51;56.31
35655;BME280;21773;50.010;19.972;2023-05-25T11:20:22;99411.69;;;20.56;55.22
35655;BME280;21773;50.010;19.972;2023-05-25T11:23:29;99410.59;;;20.57;55.30
35655;BME280;21773;50.010;19.972;2023-05-25T11:26:34;99403.19;;;20.68;55.11
35655;BME280;21773;50.010;19.972;2023-05-25T11:29:38;99408.66;;;20.78;54.78
35655;BME280;21773;50.010;19.972;2023-05-25T11:32:47;99412.47;;;20.87;54.71
35655;BME280;21773;50.010;19.972;2023-05-25T11:35:53;99399.06;;;20.86;54.08
35655;BME280;21773;50.010;19.972;2023-05-25T11:38:59;99410.03;;;20.86;54.12
35655;BME280;21773;50.010;19.972;2023-05-25T11:42:20;99401.78;;;21.01;53.83
35655;BME280;21773;50.010;19.972;2023-05-25T11:45:23;99395.97;;;21.12;53.58
35655;BME280;21773;50.010;19.972;2023-05-25T11:48:27;99388.03;;;21.21;53.56
35655;BME280;21773;50.010;19.972;2023-05-25T11:51:30;99397.06;;;21.27;53.10
35655;BME280;21773;50.010;19.972;2023-05-25T11:54:34;99397.88;;;21.27;52.65
35655;BME280;21773;50.010;19.972;2023-05-25T11:57:39;99392.44;;;21.17;52.62
35655;BME280;21773;50.010;19.972;2023-05-25T12:00:43;99390.78;;;21.16;53.26
35655;BME280;21773;50.010;19.972;2023-05-25T12:03:47;99396.53;;;21.25;53.38
35655;BME280;21773;50.010;19.972;2023-05-25T12:06:51;99394.63;;;21.20;53.47
35655;BME280;21773;50.010;19.972;2023-05-25T12:10:05;99386.69;;;21.13;53.69
35655;BME280;21773;50.010;19.972;2023-05-25T12:13:10;99391.88;;;21.30;54.01
35655;BME280;21773;50.010;19.972;2023-05-25T12:16:15;99391.31;;;21.28;52.92
35655;BME280;21773;50.010;19.972;2023-05-25T12:19:19;99391.59;;;21.22;52.89
35655;BME280;21773;50.010;19.972;2023-05-25T12:22:23;99390.22;;;21.24;53.50
35655;BME280;21773;50.010;19.972;2023-05-25T12:25:27;99392.41;;;21.22;53.56
35655;BME280;21773;50.010;19.972;2023-05-25T12:28:58;99392.13;;;21.34;53.10
35655;BME280;21773;50.010;19.972;2023-05-25T12:32:03;99403.94;;;21.29;52.71
35655;BME280;21773;50.010;19.972;2023-05-25T12:35:08;99403.94;;;21.29;53.50
35655;BME280;21773;50.010;19.972;2023-05-25T12:38:13;99397.84;;;21.42;53.79
35655;BME280;21773;50.010;19.972;2023-05-25T12:41:16;99397.56;;;21.44;52.87
35655;BME280;21773;50.010;19.972;2023-05-25T12:44:23;99385.78;;;21.38;52.33
35655;BME280;21773;50.010;19.972;2023-05-25T12:47:26;99388.22;;;21.50;52.76
35655;BME280;21773;50.010;19.972;2023-05-25T12:50:32;99389.84;;;21.51;52.84
35655;BME280;21773;50.010;19.972;2023-05-25T12:53:46;99395.31;;;21.56;52.72
35655;BME280;21773;50.010;19.972;2023-05-25T12:56:53;99372.03;;;21.48;52.52
35655;BME280;21773;50.010;19.972;2023-05-25T12:59:57;99374.50;;;21.55;52.85
35655;BME280;21773;50.010;19.972;2023-05-25T13:03:01;99376.66;;;21.58;52.97
35655;BME280;21773;50.010;19.972;2023-05-25T13:06:05;99381.91;;;21.49;53.40
35655;BME280;21773;50.010;19.972;2023-05-25T13:09:08;99374.75;;;21.53;53.00
35655;BME280;21773;50.010;19.972;2023-05-25T13:12:12;99377.53;;;21.48;52.53
35655;BME280;21773;50.010;19.972;2023-05-25T13:15:17;99360.25;;;21.43;52.73
35655;BME280;21773;50.010;19.972;2023-05-25T13:18:22;99367.31;;;21.64;52.70
35655;BME280;21773;50.010;19.972;2023-05-25T13:21:25;99367.31;;;21.64;52.21
35655;BME280;21773;50.010;19.972;2023-05-25T13:24:29;99361.84;;;21.59;52.56
35655;BME280;21773;50.010;19.972;2023-05-25T13:27:32;99361.00;;;21.64;52.04
35655;BME280;21773;50.010;19.972;2023-05-25T13:30:38;99357.66;;;21.72;51.85
35655;BME280;21773;50.010;19.972;2023-05-25T13:33:42;99348.59;;;21.71;52.14
35655;BME280;21773;50.010;19.972;2023-05-25T13:36:45;99353.50;;;21.79;52.42
35655;BME280;21773;50.010;19.972;2023-05-25T13:39:49;99354.56;;;21.83;52.58
35655;BME280;21773;50.010;19.972;2023-05-25T13:42:52;99353.16;;;21.86;51.99
35655;BME280;21773;50.010;19.972;2023-05-25T13:45:57;99340.81;;;21.93;51.90
35655;BME280;21773;50.010;19.972;2023-05-25T13:49:01;99350.59;;;22.04;51.59
35655;BME280;21773;50.010;19.972;2023-05-25T13:52:04;99327.91;;;21.89;51.80
35655;BME280;21773;50.010;19.972;2023-05-25T13:55:08;99347.38;;;21.92;51.61
35655;BME280;21773;50.010;19.972;2023-05-25T13:58:11;99345.53;;;21.78;51.40
35655;BME280;21773;50.010;19.972;2023-05-25T14:01:16;99344.22;;;21.65;52.40
35655;BME280;21773;50.010;19.972;2023-05-25T14:04:19;99353.63;;;21.59;52.41
35655;BME280;21773;50.010;19.972;2023-05-25T14:07:22;99350.88;;;21.59;52.74
35655;BME280;21773;50.010;19.972;2023-05-25T14:10:26;99351.66;;;21.65;52.50
35655;BME280;21773;50.010;19.972;2023-05-25T14:13:29;99342.84;;;21.68;52.79
35655;BME280;21773;50.010;19.972;2023-05-25T14:16:34;99342.06;;;21.62;53.26
35655;BME280;21773;50.010;19.972;2023-05-25T14:19:38;99343.75;;;21.53;52.82
35655;BME280;21773;50.010;19.972;2023-05-25T14:22:41;99354.19;;;21.46;53.32
35655;BME280;21773;50.010;19.972;2023-05-25T14:25:45;99343.56;;;21.39;53.12
35655;BME280;21773;50.010;19.972;2023-05-25T14:28:49;99353.69;;;21.44;53.28
35655;BME280;21773;50.010;19.972;2023-05-25T14:31:54;99341.06;;;21.43;53.66
35655;BME280;21773;50.010;19.972;2023-05-25T14:34:58;99351.78;;;21.39;53.48
35655;BME280;21773;50.010;19.972;2023-05-25T14:38:01;99353.72;;;21.34;53.65
35655;BME280;21773;50.010;19.972;2023-05-25T14:41:05;99349.34;;;21.33;54.10
35655;BME280;21773;50.010;19.972;2023-05-25T14:44:08;99343.88;;;21.28;53.97
35655;BME280;21773;50.010;19.972;2023-05-25T14:47:13;99348.78;;;21.31;53.83
35655;BME280;21773;50.010;19.972;2023-05-25T14:50:17;99341.66;;;21.35;53.89
35655;BME280;21773;50.010;19.972;2023-05-25T14:53:20;99346.88;;;21.26;54.23
35655;BME280;21773;50.010;19.972;2023-05-25T14:56:23;99338.38;;;21.28;53.99
35655;BME280;21773;50.010;19.972;2023-05-25T14:59:27;99340.03;;;21.29;54.35
35655;BME280;21773;50.010;19.972;2023-05-25T15:02:32;99337.56;;;21.27;54.20
35655;BME280;21773;50.010;19.972;2023-05-25T15:05:36;99339.47;;;21.27;54.17
35655;BME280;21773;50.010;19.972;2023-05-25T15:08:39;99338.13;;;21.29;54.09
35655;BME280;21773;50.010;19.972;2023-05-25T15:11:42;99328.81;;;21.20;54.41
35655;BME280;21773;50.010;19.972;2023-05-25T15:14:45;99326.63;;;21.12;55.39
35655;BME280;21773;50.010;19.972;2023-05-25T15:17:50;99336.00;;;21.01;55.83
35655;BME280;21773;50.010;19.972;2023-05-25T15:20:53;99333.84;;;20.77;55.94
35655;BME280;21773;50.010;19.972;2023-05-25T15:23:58;99334.97;;;20.71;56.61
35655;BME280;21773;50.010;19.972;2023-05-25T15:27:02;99331.16;;;20.57;57.45
35655;BME280;21773;50.010;19.972;2023-05-25T15:30:07;99334.69;;;20.53;57.53
35655;BME280;21773;50.010;19.972;2023-05-25T15:33:13;99327.31;;;20.53;57.95
35655;BME280;21773;50.010;19.972;2023-05-25T15:36:16;99322.66;;;20.54;57.68
35655;BME280;21773;50.010;19.972;2023-05-25T15:39:20;99336.91;;;20.51;58.08
35655;BME280;21773;50.010;19.972;2023-05-25T15:42:23;99326.78;;;20.41;58.26
35655;BME280;21773;50.010;19.972;2023-05-25T15:45:26;99338.81;;;20.45;58.45
35655;BME280;21773;50.010;19.972;2023-05-25T15:48:31;99331.16;;;20.32;58.51
35655;BME280;21773;50.010;19.972;2023-05-25T15:51:34;99322.97;;;20.32;59.09
35655;BME280;21773;50.010;19.972;2023-05-25T15:54:38;99315.81;;;20.26;58.58
35655;BME280;21773;50.010;19.972;2023-05-25T15:57:41;99327.06;;;20.35;58.82
35655;BME280;21773;50.010;19.972;2023-05-25T16:00:45;99324.56;;;20.33;59.27
35655;BME280;21773;50.010;19.972;2023-05-25T16:03:50;99325.94;;;20.25;58.66
35655;BME280;21773;50.010;19.972;2023-05-25T16:06:53;99311.16;;;20.21;58.94